createdAt,value
2022-12-31T02:38:32.024Z,0.00
2022-12-31T02:41:32.199Z,0.00
2022-12-31T02:43:31.979Z,0.00
2022-12-31T02:45:32.363Z,0.00
2022-12-31T02:46:32.207Z,0.00
2022-12-31T02:47:31.902Z,0.00
2022-12-31T02:48:32.110Z,0.00
2022-12-31T02:49:32.111Z,0.00
2022-12-31T02:50:31.910Z,0.00
2022-12-31T02:51:31.878Z,0.00
2022-12-31T02:52:37.903Z,0.00
2022-12-31T02:53:31.833Z,0.00
2022-12-31T02:54:31.835Z,0.00
2022-12-31T02:55:31.844Z,0.00
2022-12-31T02:56:31.832Z,0.00
2022-12-31T02:57:31.854Z,0.00
2022-12-31T02:58:31.787Z,0.00
2022-12-31T02:59:37.816Z,0.00
2022-12-31T03:00:31.813Z,0.00
2022-12-31T03:01:31.920Z,0.00
2022-12-31T03:02:31.857Z,0.00
2022-12-31T03:03:31.728Z,0.00
2022-12-31T03:04:31.751Z,0.00
2022-12-31T03:05:31.920Z,0.00
2022-12-31T03:06:37.741Z,0.00
2022-12-31T03:07:31.782Z,0.00
2022-12-31T03:08:31.690Z,0.00
2022-12-31T03:09:31.676Z,0.00
2022-12-31T03:10:31.645Z,0.00
2022-12-31T03:11:32.237Z,0.00
2022-12-31T03:12:31.688Z,0.00
2022-12-31T03:13:37.677Z,0.00
2022-12-31T03:14:31.621Z,0.00
2022-12-31T03:15:31.618Z,0.00
2022-12-31T03:16:31.647Z,0.00
2022-12-31T03:17:31.568Z,0.00
2022-12-31T03:18:31.792Z,0.00
2022-12-31T03:19:31.668Z,0.00
2022-12-31T03:21:08.508Z,0.00
2022-12-31T03:22:08.481Z,0.00
2022-12-31T03:23:08.452Z,0.00
2022-12-31T03:24:08.623Z,0.00
2022-12-31T03:25:08.495Z,0.00
2022-12-31T03:26:08.429Z,0.00
2022-12-31T03:27:51.388Z,0.00
2022-12-31T03:28:51.432Z,0.00
2022-12-31T03:31:46.831Z,0.00
2022-12-31T03:32:46.567Z,0.00
2022-12-31T03:33:46.555Z,0.00
2022-12-31T03:34:46.747Z,0.00
2022-12-31T03:35:46.534Z,0.00
2022-12-31T03:36:46.528Z,0.00
2022-12-31T03:37:52.541Z,0.00
2022-12-31T03:38:51.167Z,0.00
2022-12-31T03:39:53.983Z,0.00
2022-12-31T03:40:46.505Z,0.00
2022-12-31T03:41:46.487Z,0.00
2022-12-31T03:42:52.542Z,0.00
2022-12-31T03:44:59.765Z,0.00
2022-12-31T03:45:59.749Z,0.00
2022-12-31T03:47:05.564Z,0.00
2022-12-31T03:47:59.501Z,0.00
2022-12-31T03:48:59.486Z,0.00
2022-12-31T03:50:05.711Z,0.00
2022-12-31T03:50:59.681Z,0.00
2022-12-31T03:51:59.468Z,0.00
2022-12-31T03:52:59.462Z,0.00
2022-12-31T03:53:59.465Z,0.00
2022-12-31T03:54:59.446Z,0.00
2022-12-31T03:56:05.530Z,0.00
2022-12-31T03:57:00.346Z,0.00
2022-12-31T03:58:05.449Z,0.00
2022-12-31T03:58:59.373Z,0.00
2022-12-31T03:59:59.379Z,0.00
2022-12-31T04:00:59.568Z,0.00
2022-12-31T04:01:59.470Z,0.00
2022-12-31T04:02:59.447Z,0.00
2022-12-31T04:03:59.326Z,0.00
2022-12-31T04:04:59.350Z,0.00
2022-12-31T04:05:59.332Z,0.00
2022-12-31T04:07:05.397Z,0.00
2022-12-31T04:07:59.307Z,0.00
2022-12-31T04:08:59.322Z,0.00
2022-12-31T04:09:59.291Z,0.00
2022-12-31T04:10:59.279Z,0.00
2022-12-31T04:11:59.240Z,0.00
2022-12-31T04:12:59.486Z,0.00
2022-12-31T04:13:59.264Z,0.00
2022-12-31T04:14:59.217Z,0.00
2022-12-31T04:15:59.472Z,0.00
2022-12-31T04:16:59.254Z,0.00
2022-12-31T04:17:59.211Z,0.00
2022-12-31T04:18:59.160Z,0.00
2022-12-31T04:19:59.158Z,0.00
2022-12-31T04:20:59.154Z,0.00
2022-12-31T04:22:59.170Z,0.00
2022-12-31T04:23:59.118Z,0.00
2022-12-31T04:24:59.155Z,0.00
2022-12-31T04:27:05.364Z,0.00
2022-12-31T04:30:59.230Z,0.00
2022-12-31T04:35:58.986Z,0.00
2022-12-31T04:38:58.981Z,0.00
2022-12-31T04:59:58.911Z,0.00
2022-12-31T05:59:43.133Z,0.00
2022-12-31T06:57:23.759Z,0.00
2022-12-31T07:02:23.548Z,0.00
2022-12-31T07:04:23.649Z,0.00
2022-12-31T07:05:23.428Z,0.00
2022-12-31T07:06:23.626Z,0.00
2022-12-31T07:07:23.435Z,0.00
2022-12-31T07:08:23.389Z,0.00
2022-12-31T07:09:23.373Z,0.00
2022-12-31T07:10:29.262Z,0.00
2022-12-31T07:11:24.451Z,0.00
2022-12-31T07:12:23.464Z,0.00
2022-12-31T07:13:29.493Z,0.00
2022-12-31T07:14:23.389Z,0.00
2022-12-31T07:15:23.323Z,0.00
2022-12-31T07:16:23.324Z,0.00
2022-12-31T07:17:23.308Z,0.00
2022-12-31T07:18:23.482Z,0.00
2022-12-31T07:19:23.259Z,0.00
2022-12-31T07:20:29.312Z,0.00
2022-12-31T07:21:23.250Z,0.00
2022-12-31T07:22:23.469Z,0.00
2022-12-31T07:23:23.225Z,0.00
2022-12-31T07:24:29.307Z,0.00
2022-12-31T07:25:23.273Z,0.00
2022-12-31T07:26:23.650Z,0.00
2022-12-31T07:27:23.146Z,0.00
2022-12-31T07:28:23.229Z,0.00
2022-12-31T07:29:23.386Z,0.00
2022-12-31T07:30:23.171Z,0.00
2022-12-31T07:31:23.234Z,0.00
2022-12-31T07:32:23.159Z,0.00
2022-12-31T07:33:23.123Z,0.00
2022-12-31T07:34:29.178Z,0.00
2022-12-31T07:35:23.124Z,0.00
2022-12-31T07:37:23.107Z,0.00
2022-12-31T07:38:23.081Z,0.00
2022-12-31T07:39:23.074Z,0.00
2022-12-31T07:40:23.111Z,0.00
2022-12-31T07:41:23.064Z,0.00
2022-12-31T07:42:23.095Z,0.00
2022-12-31T07:44:23.051Z,0.00
2022-12-31T07:45:23.089Z,0.00
2022-12-31T07:46:23.018Z,0.00
2022-12-31T07:47:22.993Z,5.62
2022-12-31T07:48:22.965Z,5.62
2022-12-31T07:49:22.962Z,5.62
2022-12-31T07:50:22.964Z,5.62
2022-12-31T07:51:23.162Z,5.62
2022-12-31T07:52:22.947Z,5.62
2022-12-31T07:53:22.990Z,5.62
2022-12-31T07:54:22.943Z,5.62
2022-12-31T07:55:22.951Z,5.62
2022-12-31T07:56:22.886Z,5.62
2022-12-31T07:57:22.891Z,11.25
2022-12-31T07:58:22.869Z,11.25
2022-12-31T07:59:24.601Z,5.62
2022-12-31T08:00:22.918Z,5.62
2022-12-31T08:01:22.958Z,11.25
2022-12-31T08:02:23.161Z,16.87
2022-12-31T08:03:28.883Z,11.25
2022-12-31T08:04:22.802Z,16.87
2022-12-31T08:05:22.779Z,16.87
2022-12-31T08:06:22.791Z,16.87
2022-12-31T08:07:22.788Z,22.50
2022-12-31T08:08:22.745Z,22.50
2022-12-31T08:09:22.751Z,28.12
2022-12-31T08:10:22.765Z,33.75
2022-12-31T08:11:28.808Z,33.75
2022-12-31T08:12:22.717Z,39.37
2022-12-31T08:14:15.651Z,50.62
2022-12-31T08:15:26.858Z,50.62
2022-12-31T08:16:16.764Z,50.62
2022-12-31T08:17:15.597Z,50.62
2022-12-31T08:18:15.597Z,56.25
2022-12-31T08:19:15.542Z,56.25
2022-12-31T08:20:15.560Z,56.25
2022-12-31T08:21:15.746Z,61.87
2022-12-31T08:22:15.604Z,61.87
2022-12-31T08:23:15.695Z,56.25
2022-12-31T08:24:15.525Z,67.50
2022-12-31T08:25:15.722Z,67.50
2022-12-31T08:26:15.482Z,67.50
2022-12-31T08:27:15.495Z,73.12
2022-12-31T08:28:15.476Z,78.75
2022-12-31T08:29:15.441Z,73.12
2022-12-31T08:30:15.439Z,78.75
2022-12-31T08:31:21.523Z,84.37
2022-12-31T08:32:15.426Z,84.37
2022-12-31T08:33:21.491Z,84.37
2022-12-31T08:34:15.422Z,78.75
2022-12-31T08:35:15.393Z,78.75
2022-12-31T08:36:15.394Z,84.37
2022-12-31T08:37:21.387Z,90.00
2022-12-31T08:38:15.405Z,84.37
2022-12-31T08:39:21.805Z,84.37
2022-12-31T08:40:15.325Z,84.37
2022-12-31T08:41:15.339Z,78.75
2022-12-31T08:42:15.362Z,78.75
2022-12-31T08:43:15.329Z,90.00
2022-12-31T08:44:15.320Z,95.62
2022-12-31T08:45:15.497Z,90.00
2022-12-31T08:46:21.338Z,90.00
2022-12-31T08:47:21.331Z,106.87
2022-12-31T08:48:15.276Z,135.00
2022-12-31T08:49:15.441Z,129.37
2022-12-31T08:50:15.480Z,135.00
2022-12-31T08:51:15.211Z,140.62
2022-12-31T08:52:15.192Z,140.62
2022-12-31T08:53:15.200Z,135.00
2022-12-31T08:54:15.412Z,129.37
2022-12-31T08:55:15.184Z,123.75
2022-12-31T08:56:21.222Z,129.37
2022-12-31T08:57:17.239Z,118.12
2022-12-31T08:58:15.183Z,106.87
2022-12-31T08:59:15.150Z,78.75
2022-12-31T09:00:15.127Z,90.00
2022-12-31T09:01:15.198Z,73.12
2022-12-31T09:02:15.399Z,67.50
2022-12-31T09:03:15.106Z,73.12
2022-12-31T09:04:15.147Z,78.75
2022-12-31T09:05:15.063Z,78.75
2022-12-31T09:06:15.094Z,73.12
2022-12-31T09:07:15.253Z,67.50
2022-12-31T09:08:15.050Z,73.12
2022-12-31T09:09:21.068Z,73.12
2022-12-31T09:10:15.033Z,67.50
2022-12-31T09:11:20.870Z,61.87
2022-12-31T09:12:16.073Z,61.87
2022-12-31T09:13:14.985Z,67.50
2022-12-31T09:14:14.974Z,73.12
2022-12-31T09:15:14.972Z,78.75
2022-12-31T09:16:15.007Z,78.75
2022-12-31T09:17:14.963Z,90.00
2022-12-31T09:18:14.973Z,106.87
2022-12-31T09:19:14.959Z,123.75
2022-12-31T09:20:15.137Z,135.00
2022-12-31T09:21:14.891Z,146.25
2022-12-31T09:22:15.105Z,168.75
2022-12-31T09:23:14.918Z,180.00
2022-12-31T09:24:14.861Z,180.00
2022-12-31T09:25:14.874Z,191.25
2022-12-31T09:26:14.869Z,202.50
2022-12-31T09:27:14.894Z,241.87
2022-12-31T09:28:15.033Z,258.75
2022-12-31T09:29:14.830Z,236.25
2022-12-31T09:30:14.786Z,236.25
2022-12-31T09:31:14.892Z,253.12
2022-12-31T09:32:14.759Z,253.12
2022-12-31T09:33:14.775Z,241.87
2022-12-31T09:34:14.792Z,213.75
2022-12-31T09:35:14.773Z,191.25
2022-12-31T09:36:14.726Z,230.62
2022-12-31T09:37:14.725Z,180.00
2022-12-31T09:38:14.718Z,163.12
2022-12-31T09:39:14.980Z,208.12
2022-12-31T09:40:15.721Z,168.75
2022-12-31T09:41:14.674Z,180.00
2022-12-31T09:42:14.670Z,219.37
2022-12-31T09:43:14.882Z,320.62
2022-12-31T09:44:14.663Z,337.50
2022-12-31T09:45:14.649Z,354.37
2022-12-31T09:46:14.708Z,309.37
2022-12-31T09:47:14.839Z,309.37
2022-12-31T09:48:14.605Z,303.75
2022-12-31T09:49:14.602Z,343.12
2022-12-31T09:50:14.604Z,433.12
2022-12-31T09:51:16.324Z,483.75
2022-12-31T09:52:14.554Z,360.00
2022-12-31T09:53:20.589Z,427.50
2022-12-31T09:54:14.730Z,551.25
2022-12-31T09:55:20.757Z,646.87
2022-12-31T09:56:20.797Z,736.87
2022-12-31T09:57:14.711Z,826.87
2022-12-31T09:58:14.498Z,1023.75
2022-12-31T09:59:14.506Z,978.75
2022-12-31T10:00:14.681Z,804.37
2022-12-31T10:01:14.615Z,1018.12
2022-12-31T10:02:55.398Z,478.12
2022-12-31T10:03:55.294Z,264.37
2022-12-31T10:04:55.295Z,236.25
2022-12-31T10:06:01.321Z,208.12
2022-12-31T10:06:55.423Z,219.37
2022-12-31T10:07:55.246Z,236.25
2022-12-31T10:08:55.434Z,286.87
2022-12-31T10:09:55.522Z,388.12
2022-12-31T10:10:55.440Z,596.25
2022-12-31T10:11:55.233Z,556.87
2022-12-31T10:12:55.196Z,641.25
2022-12-31T10:13:55.196Z,1209.37
2022-12-31T10:14:55.393Z,720.00
2022-12-31T10:15:55.166Z,1147.50
2022-12-31T10:16:55.214Z,714.37
2022-12-31T10:18:01.223Z,1074.37
2022-12-31T10:18:55.124Z,1316.25
2022-12-31T10:19:55.148Z,556.87
2022-12-31T10:20:55.129Z,483.75
2022-12-31T10:22:01.213Z,511.87
2022-12-31T10:22:55.099Z,933.75
2022-12-31T10:23:55.081Z,714.37
2022-12-31T10:25:01.107Z,337.50
2022-12-31T10:25:55.061Z,315.00
2022-12-31T10:26:55.088Z,298.12
2022-12-31T10:27:55.046Z,331.87
2022-12-31T10:28:55.037Z,320.62
2022-12-31T10:29:55.082Z,315.00
2022-12-31T10:30:55.093Z,247.50
2022-12-31T10:31:55.013Z,219.37
2022-12-31T10:32:54.996Z,196.87
2022-12-31T10:33:54.983Z,202.50
2022-12-31T10:34:54.979Z,208.12
2022-12-31T10:35:55.003Z,219.37
2022-12-31T10:36:55.011Z,213.75
2022-12-31T10:37:54.963Z,219.37
2022-12-31T10:38:54.964Z,315.00
2022-12-31T10:39:54.911Z,320.62
2022-12-31T10:40:54.981Z,427.50
2022-12-31T10:41:55.146Z,663.75
2022-12-31T10:42:54.869Z,309.37
2022-12-31T10:43:54.861Z,298.12
2022-12-31T10:44:55.048Z,219.37
2022-12-31T10:45:55.172Z,275.62
2022-12-31T10:46:54.859Z,405.00
2022-12-31T10:48:00.905Z,292.50
2022-12-31T10:48:54.836Z,303.75
2022-12-31T10:49:54.826Z,253.12
2022-12-31T10:50:54.870Z,219.37
2022-12-31T10:51:54.807Z,230.62
2022-12-31T10:52:54.971Z,225.00
2022-12-31T10:53:54.815Z,247.50
2022-12-31T10:54:54.756Z,281.25
2022-12-31T10:55:54.949Z,309.37
2022-12-31T10:56:54.735Z,331.87
2022-12-31T10:57:58.687Z,354.37
2022-12-31T10:58:55.760Z,365.62
2022-12-31T10:59:54.724Z,360.00
2022-12-31T11:01:01.003Z,438.75
2022-12-31T11:01:54.796Z,1102.50
2022-12-31T11:02:54.778Z,984.37
2022-12-31T11:03:54.911Z,1023.75
2022-12-31T11:04:54.896Z,1113.75
2022-12-31T11:05:54.627Z,1203.75
2022-12-31T11:06:54.640Z,1018.12
2022-12-31T11:07:54.652Z,1057.50
2022-12-31T11:08:54.599Z,995.62
2022-12-31T11:09:54.619Z,933.75
2022-12-31T11:10:54.606Z,1046.25
2022-12-31T11:11:54.767Z,804.37
2022-12-31T11:12:54.558Z,590.62
2022-12-31T11:13:54.553Z,466.87
2022-12-31T11:14:54.576Z,371.25
2022-12-31T11:15:54.588Z,348.75
2022-12-31T11:16:54.531Z,337.50
2022-12-31T11:17:54.568Z,320.62
2022-12-31T11:18:54.504Z,331.87
2022-12-31T11:20:00.553Z,331.87
2022-12-31T11:20:54.460Z,331.87
2022-12-31T11:21:54.471Z,320.62
2022-12-31T11:22:54.490Z,337.50
2022-12-31T11:23:54.423Z,348.75
2022-12-31T11:24:54.435Z,354.37
2022-12-31T11:25:54.447Z,371.25
2022-12-31T11:27:00.462Z,354.37
2022-12-31T11:27:54.431Z,348.75
2022-12-31T11:28:54.373Z,343.12
2022-12-31T11:29:54.383Z,343.12
2022-12-31T11:30:54.424Z,331.87
2022-12-31T11:31:54.345Z,348.75
2022-12-31T11:32:54.365Z,343.12
2022-12-31T11:33:54.353Z,326.25
2022-12-31T11:35:00.378Z,298.12
2022-12-31T11:35:54.310Z,298.12
2022-12-31T11:36:54.510Z,286.87
2022-12-31T11:37:54.517Z,292.50
2022-12-31T11:38:54.487Z,298.12
2022-12-31T11:39:54.280Z,303.75
2022-12-31T11:40:54.346Z,309.37
2022-12-31T11:42:00.296Z,365.62
2022-12-31T11:42:54.474Z,365.62
2022-12-31T11:43:54.216Z,354.37
2022-12-31T11:44:54.295Z,320.62
2022-12-31T11:45:54.228Z,331.87
2022-12-31T11:46:54.203Z,337.50
2022-12-31T11:48:29.141Z,382.50
2022-12-31T11:48:55.219Z,405.00
2022-12-31T11:49:54.189Z,410.62
2022-12-31T11:50:54.352Z,348.75
2022-12-31T11:51:54.178Z,303.75
2022-12-31T11:52:54.129Z,292.50
2022-12-31T11:53:54.144Z,286.87
2022-12-31T11:55:00.182Z,286.87
2022-12-31T11:55:54.122Z,292.50
2022-12-31T11:57:00.325Z,286.87
2022-12-31T11:57:55.151Z,286.87
2022-12-31T11:58:54.280Z,281.25
2022-12-31T11:59:54.250Z,275.62
2022-12-31T12:01:00.173Z,275.62
2022-12-31T12:01:54.063Z,281.25
2022-12-31T12:02:54.136Z,281.25
2022-12-31T12:03:56.108Z,292.50
2022-12-31T12:04:54.002Z,326.25
2022-12-31T12:05:54.007Z,303.75
2022-12-31T12:06:54.416Z,286.87
2022-12-31T12:07:53.978Z,292.50
2022-12-31T12:08:53.966Z,286.87
2022-12-31T12:09:53.974Z,320.62
2022-12-31T12:10:53.950Z,281.25
2022-12-31T12:11:53.956Z,270.00
2022-12-31T12:12:54.141Z,264.37
2022-12-31T12:13:54.147Z,258.75
2022-12-31T12:14:53.897Z,258.75
2022-12-31T12:17:04.360Z,258.75
2022-12-31T12:18:00.047Z,258.75
2022-12-31T12:18:58.960Z,264.37
2022-12-31T12:19:58.980Z,270.00
2022-12-31T12:20:58.943Z,275.62
2022-12-31T12:21:58.995Z,270.00
2022-12-31T12:22:59.119Z,270.00
2022-12-31T12:23:58.934Z,270.00
2022-12-31T12:24:58.903Z,275.62
2022-12-31T12:25:58.908Z,281.25
2022-12-31T12:26:58.884Z,275.62
2022-12-31T12:27:58.904Z,281.25
2022-12-31T12:28:58.911Z,270.00
2022-12-31T12:29:58.883Z,264.37
2022-12-31T12:30:59.088Z,253.12
2022-12-31T12:31:58.832Z,247.50
2022-12-31T12:32:58.821Z,247.50
2022-12-31T12:33:58.842Z,247.50
2022-12-31T12:34:58.836Z,247.50
2022-12-31T12:35:58.860Z,253.12
2022-12-31T12:37:05.103Z,258.75
2022-12-31T12:37:58.798Z,281.25
2022-12-31T12:38:58.754Z,286.87
2022-12-31T12:39:58.739Z,264.37
2022-12-31T12:40:58.743Z,270.00
2022-12-31T12:41:58.717Z,270.00
2022-12-31T12:42:58.955Z,258.75
2022-12-31T12:43:58.720Z,247.50
2022-12-31T12:44:58.724Z,247.50
2022-12-31T12:45:58.679Z,241.87
2022-12-31T12:46:58.952Z,241.87
2022-12-31T12:47:58.720Z,241.87
2022-12-31T12:48:58.690Z,241.87
2022-12-31T12:49:58.675Z,247.50
2022-12-31T12:50:58.648Z,247.50
2022-12-31T12:51:58.665Z,247.50
2022-12-31T12:52:59.718Z,253.12
2022-12-31T12:54:04.651Z,258.75
2022-12-31T12:54:58.597Z,258.75
2022-12-31T12:55:58.603Z,270.00
2022-12-31T12:56:58.565Z,275.62
2022-12-31T12:57:58.575Z,286.87
2022-12-31T12:58:58.575Z,292.50
2022-12-31T12:59:58.519Z,286.87
2022-12-31T13:00:58.717Z,281.25
2022-12-31T13:01:58.653Z,270.00
2022-12-31T13:02:58.772Z,270.00
2022-12-31T13:04:58.496Z,253.12
2022-12-31T13:05:58.708Z,253.12
2022-12-31T13:06:58.574Z,253.12
2022-12-31T13:07:58.671Z,247.50
2022-12-31T13:08:58.722Z,253.12
2022-12-31T13:09:58.446Z,247.50
2022-12-31T13:10:58.645Z,247.50
2022-12-31T13:12:03.789Z,247.50
2022-12-31T13:13:23.720Z,247.50
2022-12-31T13:13:59.620Z,247.50
2022-12-31T13:14:58.408Z,253.12
2022-12-31T13:15:58.418Z,247.50
2022-12-31T13:16:58.415Z,247.50
2022-12-31T13:18:01.666Z,236.25
2022-12-31T13:19:04.380Z,230.62
2022-12-31T13:19:58.572Z,230.62
2022-12-31T13:20:58.323Z,230.62
2022-12-31T13:21:58.305Z,230.62
2022-12-31T13:22:58.309Z,236.25
2022-12-31T13:24:04.346Z,236.25
2022-12-31T13:24:58.304Z,225.00
2022-12-31T13:25:58.255Z,230.62
2022-12-31T13:26:58.243Z,236.25
2022-12-31T13:27:58.280Z,225.00
2022-12-31T13:28:58.261Z,219.37
2022-12-31T13:29:58.292Z,213.75
2022-12-31T13:31:06.980Z,208.12
2022-12-31T13:31:58.310Z,208.12
2022-12-31T13:32:58.280Z,208.12
2022-12-31T13:34:04.301Z,213.75
2022-12-31T13:34:58.228Z,213.75
2022-12-31T13:35:58.232Z,213.75
2022-12-31T13:36:58.229Z,225.00
2022-12-31T13:38:04.814Z,225.00
2022-12-31T13:38:59.245Z,219.37
2022-12-31T13:40:39.193Z,213.75
2022-12-31T13:41:38.982Z,213.75
2022-12-31T13:42:38.973Z,213.75
2022-12-31T13:43:39.163Z,213.75
2022-12-31T13:44:38.945Z,208.12
2022-12-31T13:45:38.936Z,208.12
2022-12-31T13:46:45.364Z,202.50
2022-12-31T13:47:38.893Z,202.50
2022-12-31T13:48:44.948Z,202.50
2022-12-31T13:49:45.099Z,196.87
2022-12-31T13:50:38.851Z,191.25
2022-12-31T13:51:38.846Z,185.62
2022-12-31T13:52:45.072Z,185.62
2022-12-31T13:53:38.821Z,180.00
2022-12-31T13:54:38.813Z,174.37
2022-12-31T13:55:38.830Z,168.75
2022-12-31T13:56:38.800Z,163.12
2022-12-31T13:57:44.870Z,157.50
2022-12-31T13:58:38.970Z,151.87
2022-12-31T13:59:38.763Z,151.87
2022-12-31T14:00:39.063Z,146.25
2022-12-31T14:01:38.960Z,146.25
2022-12-31T14:02:38.901Z,146.25
2022-12-31T14:03:38.779Z,146.25
2022-12-31T14:04:38.840Z,146.25
2022-12-31T14:05:38.687Z,140.62
2022-12-31T14:06:38.717Z,140.62
2022-12-31T14:07:45.381Z,135.00
2022-12-31T14:08:39.794Z,135.00
2022-12-31T14:09:38.781Z,129.37
2022-12-31T14:10:38.691Z,129.37
2022-12-31T14:11:38.891Z,129.37
2022-12-31T14:12:38.710Z,129.37
2022-12-31T14:13:38.724Z,123.75
2022-12-31T14:14:38.833Z,123.75
2022-12-31T14:15:38.658Z,123.75
2022-12-31T14:16:38.863Z,123.75
2022-12-31T14:17:38.799Z,123.75
2022-12-31T14:18:38.635Z,123.75
2022-12-31T14:19:41.353Z,118.12
2022-12-31T14:20:38.556Z,118.12
2022-12-31T14:21:38.553Z,112.50
2022-12-31T14:22:44.601Z,112.50
2022-12-31T14:23:38.747Z,112.50
2022-12-31T14:24:38.512Z,106.87
2022-12-31T14:25:38.510Z,106.87
2022-12-31T14:26:38.481Z,101.25
2022-12-31T14:27:38.453Z,101.25
2022-12-31T14:28:46.956Z,101.25
2022-12-31T14:29:44.859Z,101.25
2022-12-31T14:30:44.460Z,101.25
2022-12-31T14:31:38.503Z,101.25
2022-12-31T14:32:38.428Z,101.25
2022-12-31T14:33:38.388Z,101.25
2022-12-31T14:34:38.354Z,101.25
2022-12-31T14:35:38.407Z,95.62
2022-12-31T14:36:38.405Z,95.62
2022-12-31T14:37:38.388Z,95.62
2022-12-31T14:38:38.385Z,95.62
2022-12-31T14:39:44.394Z,90.00
2022-12-31T14:40:38.340Z,90.00
2022-12-31T14:41:38.360Z,90.00
2022-12-31T14:42:38.556Z,90.00
2022-12-31T14:43:38.372Z,90.00
2022-12-31T14:44:38.311Z,90.00
2022-12-31T14:45:44.374Z,84.37
2022-12-31T14:46:44.294Z,84.37
2022-12-31T14:47:44.497Z,84.37
2022-12-31T14:48:38.234Z,78.75
2022-12-31T14:49:38.235Z,78.75
2022-12-31T14:50:38.452Z,73.12
2022-12-31T14:51:38.192Z,73.12
2022-12-31T14:52:44.275Z,67.50
2022-12-31T14:53:38.171Z,67.50
2022-12-31T14:54:38.202Z,61.87
2022-12-31T14:55:38.182Z,61.87
2022-12-31T14:56:38.174Z,61.87
2022-12-31T14:58:28.436Z,56.25
2022-12-31T14:59:23.362Z,56.25
2022-12-31T15:00:23.344Z,56.25
2022-12-31T15:01:23.468Z,56.25
2022-12-31T15:02:23.503Z,50.62
2022-12-31T15:03:23.422Z,50.62
2022-12-31T15:04:23.319Z,50.62
2022-12-31T15:05:23.683Z,45.00
2022-12-31T15:06:23.515Z,45.00
2022-12-31T15:07:23.245Z,45.00
2022-12-31T15:08:23.346Z,39.37
2022-12-31T15:10:32.521Z,39.37
2022-12-31T15:11:32.553Z,33.75
2022-12-31T15:12:38.519Z,33.75
2022-12-31T15:13:32.460Z,33.75
2022-12-31T15:14:37.403Z,33.75
2022-12-31T15:15:32.477Z,28.12
2022-12-31T15:16:32.524Z,28.12
2022-12-31T15:17:32.434Z,28.12
2022-12-31T15:18:32.422Z,28.12
2022-12-31T15:19:32.550Z,22.50
2022-12-31T15:20:32.635Z,22.50
2022-12-31T15:21:32.570Z,22.50
2022-12-31T15:22:32.397Z,22.50
2022-12-31T15:23:32.587Z,16.87
2022-12-31T15:24:32.340Z,16.87
2022-12-31T15:25:38.373Z,16.87
2022-12-31T15:26:39.416Z,16.87
2022-12-31T15:27:32.379Z,16.87
2022-12-31T15:28:32.331Z,11.25
2022-12-31T15:29:32.343Z,11.25
2022-12-31T15:30:32.400Z,11.25
2022-12-31T15:31:32.386Z,11.25
2022-12-31T15:32:32.320Z,11.25
2022-12-31T15:33:38.357Z,11.25
2022-12-31T15:34:32.267Z,5.62
2022-12-31T15:35:32.248Z,5.62
2022-12-31T15:36:32.242Z,5.62
2022-12-31T15:37:32.225Z,5.62
2022-12-31T15:38:32.308Z,5.62
2022-12-31T15:39:38.257Z,5.62
2022-12-31T15:40:32.399Z,5.62
2022-12-31T15:41:32.161Z,0.00
2022-12-31T15:42:40.623Z,0.00
2022-12-31T15:43:32.332Z,0.00
2022-12-31T15:44:32.158Z,0.00
2022-12-31T15:45:32.201Z,0.00
2022-12-31T15:46:32.229Z,0.00
2022-12-31T15:47:32.120Z,0.00
2022-12-31T15:48:32.084Z,0.00
2022-12-31T15:50:08.996Z,0.00
2022-12-31T15:51:08.924Z,0.00
2022-12-31T15:52:08.924Z,0.00
2022-12-31T15:53:08.894Z,0.00
2022-12-31T15:54:09.088Z,0.00
2022-12-31T15:55:08.900Z,0.00
2022-12-31T15:56:08.893Z,0.00
2022-12-31T15:57:09.548Z,0.00
2022-12-31T15:58:08.846Z,0.00
2022-12-31T15:59:08.840Z,0.00
2022-12-31T16:00:14.939Z,0.00
2022-12-31T16:01:09.057Z,0.00
2022-12-31T16:02:14.961Z,0.00
2022-12-31T16:03:08.830Z,0.00
2022-12-31T16:04:14.891Z,0.00
2022-12-31T16:05:15.060Z,0.00
2022-12-31T16:06:08.760Z,0.00
2022-12-31T16:07:14.876Z,0.00
2022-12-31T16:08:08.984Z,0.00
2022-12-31T16:09:14.794Z,0.00
2022-12-31T16:10:08.707Z,0.00
2022-12-31T16:11:08.801Z,0.00
2022-12-31T16:12:09.178Z,0.00
2022-12-31T16:13:08.761Z,0.00
2022-12-31T16:14:08.669Z,0.00
2022-12-31T16:15:08.700Z,0.00
2022-12-31T16:16:08.782Z,0.00
2022-12-31T16:17:08.643Z,0.00
2022-12-31T16:18:08.892Z,0.00
2022-12-31T16:19:08.708Z,0.00
2022-12-31T16:20:08.943Z,0.00
2022-12-31T16:21:08.949Z,0.00
2022-12-31T16:22:14.746Z,0.00
2022-12-31T16:24:08.646Z,0.00
2022-12-31T16:25:30.187Z,0.00
2022-12-31T16:26:09.676Z,0.00
2022-12-31T16:27:08.651Z,0.00
2022-12-31T16:28:10.675Z,0.00
2022-12-31T16:30:08.563Z,0.00
2022-12-31T16:31:10.788Z,0.00
2022-12-31T16:33:09.586Z,0.00
2022-12-31T16:34:08.719Z,0.00
2022-12-31T16:35:17.602Z,0.00
2022-12-31T16:37:08.578Z,0.00
2022-12-31T16:38:08.770Z,0.00
2022-12-31T16:39:08.494Z,0.00
2022-12-31T16:42:08.476Z,0.00
2022-12-31T16:43:08.534Z,0.00
2022-12-31T16:48:14.550Z,0.00
2022-12-31T16:51:08.352Z,0.00
2022-12-31T16:53:08.388Z,0.00
2022-12-31T16:58:08.317Z,0.00
2022-12-31T16:59:08.318Z,0.00
2022-12-31T17:02:08.396Z,0.00
2022-12-31T17:03:08.359Z,0.00
2022-12-31T17:04:08.251Z,0.00
2022-12-31T17:05:08.253Z,0.00
2022-12-31T17:10:08.163Z,0.00
2022-12-31T17:11:18.527Z,0.00
2022-12-31T17:14:08.153Z,0.00
2022-12-31T17:16:08.152Z,0.00
2022-12-31T17:19:08.204Z,0.00
2022-12-31T17:31:14.040Z,0.00
2022-12-31T17:32:07.940Z,0.00
2022-12-31T17:33:07.886Z,0.00
2022-12-31T17:36:48.792Z,0.00
2022-12-31T17:37:48.755Z,0.00
2022-12-31T17:39:25.886Z,0.00
2022-12-31T17:40:50.284Z,0.00
2022-12-31T17:41:27.146Z,0.00
2022-12-31T17:42:26.102Z,0.00
2022-12-31T17:44:25.875Z,0.00
2022-12-31T17:45:25.783Z,0.00
2022-12-31T17:46:26.168Z,0.00
2022-12-31T17:48:31.756Z,0.00
2022-12-31T17:49:25.703Z,0.00
2022-12-31T17:50:25.940Z,0.00
2022-12-31T17:53:25.644Z,0.00
2022-12-31T17:54:25.668Z,0.00
2022-12-31T17:55:25.646Z,0.00
2022-12-31T17:56:25.644Z,0.00
2022-12-31T17:57:25.618Z,0.00
2022-12-31T17:58:29.474Z,0.00
2022-12-31T17:59:25.612Z,0.00
2022-12-31T18:00:25.661Z,0.00
2022-12-31T18:01:25.684Z,0.00
2022-12-31T18:08:25.486Z,0.00
2022-12-31T18:15:25.679Z,0.00
2022-12-31T18:18:26.040Z,0.00
2022-12-31T18:22:25.346Z,0.00
2022-12-31T18:32:25.248Z,0.00
2022-12-31T18:39:10.057Z,0.00
2022-12-31T18:46:10.033Z,0.00
2022-12-31T18:47:10.004Z,0.00
2022-12-31T18:49:09.938Z,0.00
2022-12-31T18:50:16.002Z,0.00
2022-12-31T18:53:09.952Z,0.00
2022-12-31T18:57:09.863Z,0.00
2022-12-31T19:03:09.826Z,0.00
2022-12-31T19:06:09.808Z,0.00
2022-12-31T19:07:09.768Z,0.00
2022-12-31T19:10:10.802Z,0.00
2022-12-31T19:12:09.684Z,0.00
2022-12-31T19:13:09.681Z,0.00
2022-12-31T19:16:09.699Z,0.00
2022-12-31T19:17:41.702Z,0.00
2022-12-31T19:18:47.777Z,0.00
2022-12-31T19:19:42.068Z,0.00
2022-12-31T19:20:41.637Z,0.00
2022-12-31T19:23:41.783Z,0.00
2022-12-31T19:25:41.563Z,0.00
2022-12-31T19:26:43.636Z,0.00
2022-12-31T19:27:47.616Z,0.00
2022-12-31T19:29:41.558Z,0.00
2022-12-31T19:30:41.512Z,0.00
2022-12-31T19:31:41.504Z,0.00
2022-12-31T19:32:41.551Z,0.00
2022-12-31T19:33:41.519Z,0.00
2022-12-31T19:34:41.482Z,0.00
2022-12-31T19:35:41.567Z,0.00
2022-12-31T19:36:44.050Z,0.00
2022-12-31T19:38:41.674Z,0.00
2022-12-31T19:39:41.439Z,0.00
2022-12-31T19:40:47.636Z,0.00
2022-12-31T19:41:41.447Z,0.00
2022-12-31T19:42:41.372Z,0.00
2022-12-31T19:45:47.465Z,0.00
2022-12-31T19:47:41.287Z,0.00
2022-12-31T19:50:41.314Z,0.00
2022-12-31T19:53:41.301Z,0.00
2022-12-31T19:54:41.236Z,0.00
2022-12-31T19:58:47.268Z,0.00
2022-12-31T19:59:41.199Z,0.00
2022-12-31T20:00:41.197Z,0.00
2022-12-31T20:01:47.309Z,0.00
2022-12-31T20:02:41.528Z,0.00
2022-12-31T20:03:41.252Z,0.00
2022-12-31T20:04:41.158Z,0.00
2022-12-31T20:05:41.342Z,0.00
2022-12-31T20:06:41.143Z,0.00
2022-12-31T20:07:41.186Z,0.00
2022-12-31T20:08:41.123Z,0.00
2022-12-31T20:09:41.108Z,0.00
2022-12-31T20:10:41.120Z,0.00
2022-12-31T20:11:41.053Z,0.00
2022-12-31T20:12:44.535Z,0.00
2022-12-31T20:13:41.103Z,0.00
2022-12-31T20:14:41.057Z,0.00
2022-12-31T20:15:41.025Z,0.00
2022-12-31T20:16:41.077Z,0.00